This is the latest recevied weather packets stored in our database for station/object IU4KCH-20. If no packets are shown the sender has not sent any weather packets the latest 10 day(s).
| Time | Temp. | Humidity | Pressure | Rain* | Wind** | Luminosity | Snow |
|---|---|---|---|---|---|---|---|
| 1777747416 | 22.78° C | 36% | 1017.2 hPa | - | - | - | - |
| 1777746515 | 23.33° C | 35% | 1017.2 hPa | - | - | - | - |
| 1777745614 | 23.89° C | 32% | 1017.1 hPa | - | - | - | - |
| 1777744713 | 25.56° C | 28% | 1017.1 hPa | - | - | - | - |
| 1777743813 | 25.56° C | 28% | 1017 hPa | - | - | - | - |
| 1777742011 | 27.78° C | 26% | 1017.2 hPa | - | - | - | - |
| 1777741110 | 28.33° C | 24% | 1017.1 hPa | - | - | - | - |
| 1777740209 | 28.89° C | 22% | 1017.3 hPa | - | - | - | - |
| 1777739308 | 32.78° C | 19% | 1017.3 hPa | - | - | - | - |
| 1777738408 | 31.11° C | 21% | 1017.5 hPa | - | - | - | - |
| 1777737507 | 32.78° C | 19% | 1017.6 hPa | - | - | - | - |
| 1777736606 | 30.56° C | 22% | 1017.8 hPa | - | - | - | - |
| 1777735705 | 35° C | 16% | 1017.9 hPa | - | - | - | - |
| 1777734804 | 33.33° C | 19% | 1018 hPa | - | - | - | - |
| 1777733903 | 31.67° C | 20% | 1018.2 hPa | - | - | - | - |
| 1777733003 | 37.78° C | 15% | 1018.3 hPa | - | - | - | - |
| 1777732102 | 41.67° C | 14% | 1018.4 hPa | - | - | - | - |
| 1777731201 | 40° C | 15% | 1018.7 hPa | - | - | - | - |
| 1777730300 | 38.33° C | 14% | 1019 hPa | - | - | - | - |
| 1777729399 | 41.11° C | 13% | 1019.2 hPa | - | - | - | - |
| 1777728499 | 41.67° C | 14% | 1019.4 hPa | - | - | - | - |
| 1777727598 | 40.56° C | 14% | 1019.6 hPa | - | - | - | - |
| 1777726697 | 37.78° C | 15% | 1020 hPa | - | - | - | - |
| 1777725796 | 37.78° C | 15% | 1020.1 hPa | - | - | - | - |
| 1777724895 | 37.22° C | 17% | 1020.4 hPa | - | - | - | - |
* Rain since midnight (hover to see other rain measurements)
** Current wind speed in m/s (hover to see current wind gust speed)